Time;durP1;ratioP1;P1;durP2;ratioP2;P2;SDS_P1;SDS_P2;PMS_P1;PMS_P2;Temp;Humidity;BMP_temperature;BMP_pressure;BME280_temperature;BME280_humidity;BME280_pressure;Samples;Min_cycle;Max_cycle;Signal;HPM_P1;HPM_P2
2023/06/11 00:02:01;;;;;;;5.40;5.00;;;;;;;17.18;100.00;99611.13;106998;1259;72446;-44
2023/06/11 00:04:34;;;;;;;7.80;5.60;;;;;;;17.18;100.00;99608.02;105255;1254;60858;-46
2023/06/11 00:07:02;;;;;;;3.10;3.00;;;;;;;17.20;100.00;99607.84;109059;1257;60109;-44
2023/06/11 00:09:29;;;;;;;5.40;4.10;;;;;;;17.24;100.00;99611.73;109090;1254;73064;-45
2023/06/11 00:11:56;;;;;;;3.60;3.30;;;;;;;17.25;100.00;99611.11;109039;1256;67529;-45
2023/06/11 00:14:24;;;;;;;3.60;2.90;;;;;;;17.23;100.00;99617.39;109058;1254;71399;-46
2023/06/11 00:16:51;;;;;;;2.70;2.60;;;;;;;17.24;100.00;99615.17;109011;1254;61661;-46
2023/06/11 00:19:19;;;;;;;3.60;2.90;;;;;;;17.26;100.00;99619.68;109149;1254;59108;-44
2023/06/11 00:21:48;;;;;;;3.10;2.80;;;;;;;17.31;100.00;99624.23;109261;1254;73004;-45
2023/06/11 00:24:16;;;;;;;2.30;2.10;;;;;;;17.34;100.00;99625.58;109098;1254;68047;-44
2023/06/11 00:26:45;;;;;;;3.00;2.80;;;;;;;17.36;100.00;99628.02;109064;1253;71376;-45
2023/06/11 00:29:12;;;;;;;3.70;2.80;;;;;;;17.36;100.00;99631.26;109089;1259;60220;-43
2023/06/11 00:31:39;;;;;;;4.70;3.80;;;;;;;17.35;100.00;99632.92;107689;1258;60177;-44
2023/06/11 00:34:07;;;;;;;3.20;3.00;;;;;;;17.34;100.00;99635.73;105458;1254;72781;-44
2023/06/11 00:36:35;;;;;;;5.30;3.60;;;;;;;17.33;100.00;99638.70;105701;1254;66117;-43
2023/06/11 00:39:03;;;;;;;3.60;3.40;;;;;;;17.34;100.00;99643.22;105642;1259;71797;-44
2023/06/11 00:41:31;;;;;;;8.20;4.60;;;;;;;17.33;100.00;99645.66;105955;1254;60128;-44
2023/06/11 00:43:59;;;;;;;7.20;6.00;;;;;;;17.27;100.00;99640.48;105314;1259;59502;-45
2023/06/11 00:46:26;;;;;;;5.10;4.80;;;;;;;17.25;100.00;99640.61;105508;1260;72844;-42
2023/06/11 00:48:54;;;;;;;5.10;4.70;;;;;;;17.24;100.00;99646.67;105687;1260;67914;-42
2023/06/11 00:51:22;;;;;;;5.00;4.20;;;;;;;17.21;100.00;99649.86;105334;1259;71552;-41
2023/06/11 00:53:51;;;;;;;7.30;6.60;;;;;;;17.18;100.00;99653.30;106197;1259;60464;-44
2023/06/11 00:56:19;;;;;;;7.40;6.40;;;;;;;17.14;100.00;99656.36;105515;1257;59636;-44
2023/06/11 00:58:48;;;;;;;8.90;6.50;;;;;;;17.07;100.00;99662.33;105557;1259;73871;-45
2023/06/11 01:01:25;;;;;;;7.20;6.60;;;;;;;17.03;100.00;99668.83;105488;1260;66657;-46
2023/06/11 01:03:54;;;;;;;6.20;5.80;;;;;;;16.95;100.00;99671.55;105639;1253;72646;-43
2023/06/11 01:06:22;;;;;;;6.30;5.90;;;;;;;16.91;100.00;99678.98;105415;1257;61093;-44
2023/06/11 01:08:53;;;;;;;5.70;5.40;;;;;;;16.86;100.00;99683.30;105685;1254;60186;-46
2023/06/11 01:11:22;;;;;;;6.70;6.20;;;;;;;16.84;100.00;99686.20;105544;1254;72592;-42
2023/06/11 01:13:54;;;;;;;6.40;6.10;;;;;;;16.81;100.00;99686.08;105372;1253;67756;-45
2023/06/11 01:16:27;;;;;;;6.70;6.20;;;;;;;16.74;100.00;99686.63;105737;1260;72732;-46
2023/06/11 01:19:03;;;;;;;8.10;7.60;;;;;;;16.68;100.00;99686.36;106118;1262;60549;-47
2023/06/11 01:21:40;;;;;;;7.70;7.00;;;;;;;16.62;100.00;99691.64;105434;1263;59966;-47
2023/06/11 01:24:09;;;;;;;;;;;;;;;16.60;100.00;99695.95;105373;1255;71849;-45
2023/06/11 01:26:49;;;;;;;6.90;6.20;;;;;;;16.59;100.00;99701.06;105857;1260;67583;-46
2023/06/11 01:29:16;;;;;;;7.60;6.90;;;;;;;16.58;100.00;99706.99;105377;1257;71309;-42
2023/06/11 01:31:44;;;;;;;6.60;6.20;;;;;;;16.52;100.00;99709.23;105329;1258;60398;-44
2023/06/11 01:34:13;;;;;;;6.60;6.10;;;;;;;16.47;100.00;99715.77;105588;1253;60049;-43
2023/06/11 01:36:41;;;;;;;6.70;6.30;;;;;;;16.42;100.00;99718.67;105365;1259;73556;-45
2023/06/11 01:39:09;;;;;;;6.70;6.00;;;;;;;16.39;100.00;99719.64;105488;1263;67151;-46
2023/06/11 01:41:55;;;;;;;6.60;4.80;;;;;;;16.39;100.00;99723.61;105610;1260;72671;-44
2023/06/11 01:44:25;;;;;;;4.40;3.70;;;;;;;16.38;100.00;99726.89;105510;1259;61680;-43
2023/06/11 01:46:52;;;;;;;3.00;2.70;;;;;;;16.33;100.00;99727.49;105553;1259;60620;-45
2023/06/11 01:49:20;;;;;;;2.80;2.60;;;;;;;16.28;100.00;99729.46;105620;1257;73029;-45
2023/06/11 01:51:47;;;;;;;4.40;2.30;;;;;;;16.26;100.00;99728.88;105291;1262;68627;-43
2023/06/11 01:54:15;;;;;;;4.90;2.00;;;;;;;16.22;100.00;99727.73;105426;1254;71760;-44
2023/06/11 01:56:43;;;;;;;4.70;2.50;;;;;;;16.18;100.00;99732.90;105415;1254;61140;-45
2023/06/11 01:59:12;;;;;;;2.60;2.40;;;;;;;16.10;100.00;99734.89;105426;1255;60449;-43
2023/06/11 02:01:40;;;;;;;3.60;1.50;;;;;;;16.05;100.00;99737.81;105809;1254;72609;-45
2023/06/11 02:04:07;;;;;;;1.70;1.60;;;;;;;16.03;100.00;99734.16;105194;1257;67307;-45
2023/06/11 02:06:35;;;;;;;2.60;1.20;;;;;;;16.05;100.00;99738.02;105663;1253;72605;-43
2023/06/11 02:09:02;;;;;;;8.20;1.50;;;;;;;16.08;100.00;99737.95;105392;1258;63843;-44
2023/06/11 02:11:30;;;;;;;3.70;1.00;;;;;;;16.09;100.00;99737.34;105378;1257;60572;-43
2023/06/11 02:13:57;;;;;;;1.90;1.10;;;;;;;16.05;100.00;99736.01;105440;1254;73804;-45
2023/06/11 02:16:24;;;;;;;1.30;1.20;;;;;;;16.04;100.00;99735.52;105320;1261;67570;-44
2023/06/11 02:18:52;;;;;;;2.00;1.80;;;;;;;16.02;100.00;99736.21;105448;1260;72656;-44
2023/06/11 02:21:19;;;;;;;4.60;3.30;;;;;;;15.97;100.00;99734.40;105246;1261;60551;-45
2023/06/11 02:23:46;;;;;;;2.90;2.70;;;;;;;15.93;100.00;99733.05;105438;1254;60543;-44
2023/06/11 02:26:13;;;;;;;4.60;3.50;;;;;;;15.86;100.00;99732.27;105349;1259;73883;-44
2023/06/11 02:28:41;;;;;;;3.10;2.70;;;;;;;15.78;100.00;99731.37;105466;1258;67576;-43
2023/06/11 02:31:08;;;;;;;2.00;1.70;;;;;;;15.74;100.00;99738.77;105395;1254;72689;-44
2023/06/11 02:33:35;;;;;;;2.00;1.70;;;;;;;15.68;100.00;99733.73;105332;1260;62301;-44
2023/06/11 02:36:03;;;;;;;4.30;1.10;;;;;;;15.64;100.00;99738.02;105402;1253;60421;-43
2023/06/11 02:38:31;;;;;;;2.90;1.60;;;;;;;15.61;100.00;99741.24;106672;1254;73735;-44
2023/06/11 02:40:58;;;;;;;2.20;1.10;;;;;;;15.60;100.00;99748.24;105319;1257;68043;-45
2023/06/11 02:43:25;;;;;;;2.10;1.40;;;;;;;15.54;100.00;99757.52;105324;1260;71285;-46
2023/06/11 02:45:52;;;;;;;3.30;1.70;;;;;;;15.49;100.00;99754.33;105439;1264;60521;-46
2023/06/11 02:48:20;;;;;;;3.90;1.00;;;;;;;15.46;100.00;99752.97;105337;1255;60508;-45
2023/06/11 02:50:47;;;;;;;2.00;1.10;;;;;;;15.45;100.00;99755.02;105314;1260;74235;-43
2023/06/11 02:53:14;;;;;;;2.40;0.90;;;;;;;15.45;100.00;99751.02;105349;1260;66642;-45
2023/06/11 02:55:42;;;;;;;2.40;0.80;;;;;;;15.44;100.00;99758.70;105368;1254;72641;-45
2023/06/11 02:58:09;;;;;;;2.30;1.00;;;;;;;15.44;100.00;99755.08;105289;1259;61704;-43
2023/06/11 03:00:36;;;;;;;4.10;1.00;;;;;;;15.44;100.00;99756.36;105314;1264;61133;-44
2023/06/11 03:03:04;;;;;;;1.00;0.90;;;;;;;15.42;100.00;99759.17;105247;1264;72961;-44
2023/06/11 03:05:37;;;;;;;1.30;0.70;;;;;;;15.40;100.00;99761.88;108594;1254;66665;-45
2023/06/11 03:08:04;;;;;;;0.90;0.80;;;;;;;15.39;100.00;99761.73;105498;1254;73536;-44
2023/06/11 03:10:32;;;;;;;1.80;1.00;;;;;;;15.40;100.00;99761.70;108962;1254;62681;-45
2023/06/11 03:12:59;;;;;;;2.50;1.20;;;;;;;15.42;100.00;99765.70;108964;1254;58747;-45
2023/06/11 03:15:26;;;;;;;1.30;0.90;;;;;;;15.45;100.00;99769.48;109048;1254;73021;-46
2023/06/11 03:17:54;;;;;;;5.30;0.80;;;;;;;15.45;100.00;99773.98;107295;1256;66341;-44
2023/06/11 03:20:21;;;;;;;3.10;1.00;;;;;;;15.45;100.00;99772.91;105338;1257;71763;-44
2023/06/11 03:22:48;;;;;;;2.40;1.00;;;;;;;15.44;100.00;99777.86;105199;1259;62131;-45
2023/06/11 03:25:16;;;;;;;2.60;1.10;;;;;;;15.40;100.00;99774.66;105265;1266;60524;-45
2023/06/11 03:27:44;;;;;;;1.80;0.90;;;;;;;15.37;100.00;99776.15;105328;1261;74267;-45
2023/06/11 03:30:11;;;;;;;0.90;0.80;;;;;;;15.32;100.00;99775.59;105328;1263;66820;-44
2023/06/11 03:32:39;;;;;;;4.20;1.10;;;;;;;15.29;100.00;99773.13;105511;1254;72654;-44
2023/06/11 03:35:08;;;;;;;2.20;0.90;;;;;;;15.22;100.00;99778.98;106516;1254;61086;-43
2023/06/11 03:37:36;;;;;;;1.10;0.90;;;;;;;15.14;100.00;99777.17;106607;1255;60450;-45
2023/06/11 03:40:06;;;;;;;1.60;1.10;;;;;;;15.10;100.00;99776.02;106039;1260;73783;-43
2023/06/11 03:42:34;;;;;;;3.40;0.90;;;;;;;15.08;100.00;99773.75;105832;1257;66372;-43
2023/06/11 03:45:01;;;;;;;1.10;0.80;;;;;;;15.08;100.00;99774.64;106679;1257;71242;-43
2023/06/11 03:47:29;;;;;;;2.00;0.90;;;;;;;15.09;100.00;99773.72;105402;1254;63110;-45
2023/06/11 03:49:56;;;;;;;0.70;0.70;;;;;;;15.04;100.00;99770.25;105766;1255;59560;-43
2023/06/11 03:52:24;;;;;;;1.60;0.80;;;;;;;14.99;100.00;99772.71;105480;1257;73950;-44
2023/06/11 03:54:51;;;;;;;4.00;0.80;;;;;;;14.99;100.00;99771.50;105535;1257;66230;-43
2023/06/11 03:57:19;;;;;;;1.70;0.90;;;;;;;14.99;100.00;99768.21;105432;1261;73062;-45
2023/06/11 03:59:46;;;;;;;5.60;0.90;;;;;;;14.99;100.00;99772.21;105419;1257;60559;-45
2023/06/11 04:02:13;;;;;;;5.20;1.10;;;;;;;14.98;100.00;99768.11;105373;1257;60721;-45
2023/06/11 04:04:41;;;;;;;2.60;0.90;;;;;;;14.94;100.00;99765.11;105288;1254;73303;-44
2023/06/11 04:07:08;;;;;;;2.40;0.90;;;;;;;14.92;100.00;99765.80;105566;1257;65476;-44
2023/06/11 04:09:36;;;;;;;1.50;0.80;;;;;;;14.90;100.00;99767.78;105415;1254;72808;-45
2023/06/11 04:12:03;;;;;;;1.00;0.90;;;;;;;14.89;100.00;99769.45;105342;1255;61669;-45
2023/06/11 04:14:31;;;;;;;4.40;0.80;;;;;;;14.89;100.00;99771.48;105664;1254;61905;-44
2023/06/11 04:16:58;;;;;;;3.20;0.90;;;;;;;14.88;100.00;99768.98;105470;1254;73898;-44
2023/06/11 04:19:26;;;;;;;1.80;1.60;;;;;;;14.89;100.00;99777.71;105472;1254;67863;-45
2023/06/11 04:21:54;;;;;;;2.60;1.60;;;;;;;14.92;100.00;99777.40;105418;1261;73360;-45
2023/06/11 04:24:22;;;;;;;0.90;0.80;;;;;;;14.91;100.00;99782.84;105431;1260;61662;-46
2023/06/11 04:26:51;;;;;;;2.00;0.80;;;;;;;14.91;100.00;99789.21;105350;1255;60453;-44
2023/06/11 04:29:18;;;;;;;5.10;0.70;;;;;;;14.89;100.00;99791.31;105336;1255;72619;-44
2023/06/11 04:31:47;;;;;;;2.90;0.70;;;;;;;14.83;100.00;99793.34;105351;1254;66936;-45
2023/06/11 04:34:17;;;;;;;0.80;0.70;;;;;;;14.84;100.00;99800.15;105271;1254;73133;-43
2023/06/11 04:36:45;;;;;;;0.80;0.70;;;;;;;14.88;100.00;99805.88;105507;1254;62161;-45
2023/06/11 04:39:14;;;;;;;1.00;0.70;;;;;;;14.92;100.00;99810.65;105497;1254;61067;-43
2023/06/11 04:41:41;;;;;;;1.60;0.70;;;;;;;14.97;100.00;99813.71;106281;1254;73198;-43
2023/06/11 04:44:09;;;;;;;1.70;0.60;;;;;;;15.00;100.00;99818.98;105440;1257;66978;-44
2023/06/11 04:46:38;;;;;;;1.00;1.00;;;;;;;15.00;100.00;99820.56;105290;1260;72703;-44
2023/06/11 04:49:07;;;;;;;3.20;1.20;;;;;;;15.00;100.00;99821.47;105544;1253;60881;-46
2023/06/11 04:51:40;;;;;;;2.80;0.70;;;;;;;15.03;100.00;99827.79;105180;1254;60418;-42
2023/06/11 04:54:09;;;;;;;0.90;0.60;;;;;;;15.05;100.00;99833.45;105271;1255;73019;-44
2023/06/11 04:56:41;;;;;;;4.40;0.60;;;;;;;15.05;100.00;99834.89;105456;1260;68102;-44
2023/06/11 04:59:09;;;;;;;0.50;0.50;;;;;;;15.09;100.00;99838.61;105268;1260;71721;-44
2023/06/11 05:01:46;;;;;;;2.00;0.70;;;;;;;15.13;100.00;99841.20;105353;1260;61726;-44
2023/06/11 05:04:16;;;;;;;1.30;0.50;;;;;;;15.15;100.00;99840.15;105354;1257;60309;-44
2023/06/11 05:06:45;;;;;;;1.10;0.60;;;;;;;15.12;100.00;99844.75;105306;1260;73053;-45
2023/06/11 05:09:16;;;;;;;1.10;0.60;;;;;;;15.11;100.00;99843.36;105606;1259;66633;-44
2023/06/11 05:11:46;;;;;;;2.60;0.80;;;;;;;15.11;100.00;99846.79;105726;1262;73849;-44
2023/06/11 05:14:15;;;;;;;0.80;0.60;;;;;;;15.13;100.00;99844.11;105258;1254;61145;-44
2023/06/11 05:16:45;;;;;;;1.90;0.50;;;;;;;15.15;100.00;99847.24;105625;1259;60374;-45
2023/06/11 05:19:14;;;;;;;1.40;0.50;;;;;;;15.15;100.00;99848.85;106017;1260;72803;-44
2023/06/11 05:21:41;;;;;;;0.70;0.60;;;;;;;15.19;100.00;99850.27;105479;1254;66894;-45
2023/06/11 05:24:18;;;;;;;0.60;0.50;;;;;;;15.23;100.00;99853.63;105378;1255;71434;-45
2023/06/11 05:26:47;;;;;;;1.40;0.70;;;;;;;15.18;100.00;99854.98;106697;1256;61703;-43
2023/06/11 05:29:15;;;;;;;1.40;0.70;;;;;;;15.14;100.00;99857.59;105328;1260;60450;-44
2023/06/11 05:31:42;;;;;;;2.40;0.50;;;;;;;15.14;100.00;99862.27;105316;1254;73921;-44
2023/06/11 05:34:10;;;;;;;0.70;0.60;;;;;;;15.12;100.00;99865.86;105506;1254;68087;-42
2023/06/11 05:36:38;;;;;;;1.60;0.50;;;;;;;15.06;100.00;99866.44;105349;1261;72659;-45
2023/06/11 05:39:06;;;;;;;3.10;0.60;;;;;;;14.98;100.00;99861.75;105221;1254;61598;-45
2023/06/11 05:41:34;;;;;;;0.70;0.60;;;;;;;14.95;100.00;99862.29;105274;1261;60401;-45
2023/06/11 05:44:02;;;;;;;2.30;0.60;;;;;;;14.91;100.00;99862.88;105293;1254;72515;-44
2023/06/11 05:46:30;;;;;;;1.80;0.70;;;;;;;14.88;100.00;99865.98;108311;1254;68085;-45
2023/06/11 05:48:59;;;;;;;3.80;0.60;;;;;;;14.88;100.00;99863.63;105340;1258;70666;-44
2023/06/11 05:51:26;;;;;;;2.40;0.70;;;;;;;14.88;100.00;99866.57;105135;1256;60520;-44
2023/06/11 05:53:54;;;;;;;2.90;0.70;;;;;;;14.86;100.00;99874.27;108942;1254;60077;-46
2023/06/11 05:56:22;;;;;;;2.70;0.70;;;;;;;14.81;100.00;99871.15;106816;1260;73893;-43
2023/06/11 05:58:50;;;;;;;3.70;0.70;;;;;;;14.73;100.00;99863.33;105296;1261;65845;-44
2023/06/11 06:01:17;;;;;;;1.20;0.70;;;;;;;14.68;100.00;99865.66;105266;1257;71887;-44
2023/06/11 06:03:45;;;;;;;5.10;1.20;;;;;;;14.66;100.00;99866.68;109010;1254;61449;-45
2023/06/11 06:06:13;;;;;;;3.40;0.70;;;;;;;14.65;100.00;99867.84;108905;1253;60510;-45
2023/06/11 06:08:41;;;;;;;3.00;0.60;;;;;;;14.62;100.00;99867.48;108931;1254;72184;-45
2023/06/11 06:11:11;;;;;;;2.10;0.70;;;;;;;14.59;100.00;99874.16;107578;1257;67597;-46
2023/06/11 06:13:39;;;;;;;3.10;0.60;;;;;;;14.57;100.00;99876.14;105302;1256;72069;-45
2023/06/11 06:16:07;;;;;;;3.40;0.60;;;;;;;14.52;100.00;99879.66;109037;1254;61706;-45
2023/06/11 06:18:35;;;;;;;1.00;0.70;;;;;;;14.51;100.00;99879.90;108727;1254;60063;-46
2023/06/11 06:21:02;;;;;;;1.40;0.70;;;;;;;14.47;100.00;99883.80;108805;1254;75495;-45
2023/06/11 06:23:30;;;;;;;0.90;0.80;;;;;;;14.41;100.00;99879.61;108899;1254;66282;-46
2023/06/11 06:26:03;;;;;;;2.30;0.60;;;;;;;14.40;100.00;99881.52;107088;1259;73213;-45
2023/06/11 06:28:32;;;;;;;0.70;0.60;;;;;;;14.36;100.00;99884.59;105827;1260;60564;-44
2023/06/11 06:30:59;;;;;;;5.90;0.80;;;;;;;14.30;100.00;99883.35;105218;1254;60473;-45
2023/06/11 06:33:26;;;;;;;1.50;0.50;;;;;;;14.27;100.00;99886.63;105262;1254;72971;-44
2023/06/11 06:35:54;;;;;;;5.40;0.50;;;;;;;14.27;100.00;99888.79;105334;1253;68220;-44
2023/06/11 06:38:21;;;;;;;2.80;0.60;;;;;;;14.26;100.00;99888.27;105018;1261;71696;-45
2023/06/11 06:40:49;;;;;;;0.70;0.40;;;;;;;14.24;100.00;99886.23;105213;1257;60666;-45
2023/06/11 06:43:16;;;;;;;5.60;0.50;;;;;;;14.21;100.00;99891.52;104685;1254;60539;-46
2023/06/11 06:45:52;;;;;;;6.30;0.90;;;;;;;14.18;100.00;99894.03;104815;1254;72610;-45
2023/06/11 06:48:23;;;;;;;2.20;0.70;;;;;;;14.12;100.00;99898.91;104598;1254;66795;-45
2023/06/11 06:50:52;;;;;;;2.00;0.70;;;;;;;14.05;100.00;99900.79;105119;1257;71196;-45
2023/06/11 06:53:20;;;;;;;1.60;0.50;;;;;;;14.01;100.00;99901.17;104546;1261;60405;-45
2023/06/11 06:55:47;;;;;;;1.00;0.60;;;;;;;14.00;100.00;99905.76;104923;1254;60565;-46
2023/06/11 06:58:19;;;;;;;2.50;0.50;;;;;;;14.04;100.00;99912.55;105282;1259;74251;-46
2023/06/11 07:00:46;;;;;;;1.50;0.50;;;;;;;14.07;100.00;99914.18;105132;1256;67902;-46
2023/06/11 07:03:14;;;;;;;1.70;0.60;;;;;;;14.04;100.00;99910.19;105041;1260;71675;-47
2023/06/11 07:05:43;;;;;;;0.90;0.50;;;;;;;13.98;100.00;99909.64;105595;1260;60548;-45
2023/06/11 07:08:11;;;;;;;1.90;0.50;;;;;;;13.91;100.00;99910.07;105699;1254;62361;-44
2023/06/11 07:10:48;;;;;;;0.60;0.40;;;;;;;13.84;100.00;99914.30;105990;1254;72742;-44
2023/06/11 07:13:15;;;;;;;0.60;0.50;;;;;;;13.76;100.00;99916.21;105361;1254;68008;-43
2023/06/11 07:15:43;;;;;;;2.50;0.60;;;;;;;13.65;100.00;99920.45;105029;1257;70850;-45
2023/06/11 07:18:11;;;;;;;2.10;0.50;;;;;;;13.54;100.00;99919.11;104999;1258;60480;-44
2023/06/11 07:20:38;;;;;;;3.60;0.50;;;;;;;13.50;100.00;99922.23;105444;1254;60805;-46
2023/06/11 07:23:05;;;;;;;1.40;0.50;;;;;;;13.48;100.00;99923.27;105520;1254;71603;-44
2023/06/11 07:25:33;;;;;;;3.90;0.70;;;;;;;13.44;100.00;99920.20;105310;1259;66597;-44
2023/06/11 07:28:01;;;;;;;2.90;0.50;;;;;;;13.45;100.00;99920.00;105636;1254;71044;-45
2023/06/11 07:30:29;;;;;;;0.50;0.40;;;;;;;13.43;100.00;99921.05;105814;1257;60776;-44
2023/06/11 07:32:57;;;;;;;0.90;0.30;;;;;;;13.39;100.00;99919.46;106710;1257;59321;-46
2023/06/11 07:35:25;;;;;;;1.30;0.50;;;;;;;13.36;100.00;99921.59;105303;1254;73823;-45
2023/06/11 07:37:53;;;;;;;1.90;0.40;;;;;;;13.30;100.00;99923.95;105484;1259;66651;-46
2023/06/11 07:40:21;;;;;;;2.40;0.30;;;;;;;13.22;100.00;99932.46;105654;1256;73852;-45
2023/06/11 07:42:48;;;;;;;3.40;0.50;;;;;;;13.13;100.00;99935.16;105250;1270;61962;-44
2023/06/11 07:45:16;;;;;;;1.60;0.30;;;;;;;13.07;100.00;99937.48;105422;1254;60563;-45
2023/06/11 07:47:47;;;;;;;0.60;0.40;;;;;;;13.07;100.00;99936.39;105387;1261;73022;-44
2023/06/11 07:50:15;;;;;;;2.70;0.30;;;;;;;13.09;100.00;99933.59;105424;1256;66626;-44
2023/06/11 07:52:42;;;;;;;1.50;0.40;;;;;;;13.08;100.00;99937.59;105460;1256;70664;-44
2023/06/11 07:55:18;;;;;;;1.00;0.40;;;;;;;13.04;100.00;99938.69;105141;1260;60447;-43
2023/06/11 07:57:46;;;;;;;2.00;0.80;;;;;;;13.00;100.00;99941.30;105296;1253;59640;-45
2023/06/11 08:00:16;;;;;;;0.80;0.40;;;;;;;12.89;100.00;99935.22;105287;1259;73820;-44
2023/06/11 08:02:44;;;;;;;0.50;0.40;;;;;;;12.81;100.00;99934.75;105279;1255;67026;-45
2023/06/11 08:05:17;;;;;;;2.20;0.40;;;;;;;12.76;100.00;99942.41;105137;1255;71503;-44
2023/06/11 08:07:45;;;;;;;1.60;0.40;;;;;;;12.70;100.00;99938.96;104996;1254;61713;-42
2023/06/11 08:10:13;;;;;;;2.10;0.40;;;;;;;12.63;100.00;99940.23;105341;1256;60424;-43
2023/06/11 08:12:41;;;;;;;2.70;0.40;;;;;;;12.57;100.00;99935.72;105268;1254;72083;-43
2023/06/11 08:15:09;;;;;;;1.40;0.30;;;;;;;12.50;100.00;99936.24;105329;1259;67726;-44
2023/06/11 08:17:38;;;;;;;2.20;0.30;;;;;;;12.44;100.00;99930.98;105638;1253;72137;-44
2023/06/11 08:20:07;;;;;;;0.40;0.40;;;;;;;12.40;100.00;99934.27;105337;1254;61783;-43
2023/06/11 08:22:35;;;;;;;1.30;0.40;;;;;;;12.42;100.00;99926.59;105091;1254;60338;-43
2023/06/11 08:25:02;;;;;;;0.80;0.50;;;;;;;12.47;100.00;99924.69;104611;1258;73759;-43
2023/06/11 08:27:30;;;;;;;1.70;0.40;;;;;;;12.54;100.00;99926.31;105291;1253;67889;-44
2023/06/11 08:29:57;;;;;;;0.70;0.60;;;;;;;12.56;100.00;99924.23;105332;1254;74950;-44
2023/06/11 08:32:24;;;;;;;3.20;0.40;;;;;;;12.59;100.00;99921.19;105348;1253;61743;-44
2023/06/11 08:34:52;;;;;;;1.50;0.40;;;;;;;12.63;100.00;99920.06;109009;1253;60046;-44
2023/06/11 08:37:19;;;;;;;2.10;0.40;;;;;;;12.67;100.00;99916.59;108984;1253;73781;-44
2023/06/11 08:39:47;;;;;;;1.90;0.40;;;;;;;12.71;100.00;99916.73;108941;1253;67564;-44
2023/06/11 08:42:14;;;;;;;0.50;0.40;;;;;;;12.77;100.00;99920.59;109047;1253;71466;-45
2023/06/11 08:44:41;;;;;;;1.90;0.40;;;;;;;12.78;100.00;99919.79;108988;1253;61640;-45
2023/06/11 08:47:10;;;;;;;2.10;0.40;;;;;;;12.71;100.00;99923.58;109033;1253;60429;-44
2023/06/11 08:49:39;;;;;;;1.60;0.50;;;;;;;12.60;100.00;99924.92;105812;1257;73908;-44
2023/06/11 08:52:06;;;;;;;0.80;0.40;;;;;;;12.50;100.00;99925.46;105302;1254;67872;-45
2023/06/11 08:54:34;;;;;;;0.60;0.40;;;;;;;12.45;100.00;99928.04;105066;1255;72682;-45
2023/06/11 08:57:01;;;;;;;1.30;0.50;;;;;;;12.42;100.00;99926.42;105199;1256;61264;-45
2023/06/11 08:59:28;;;;;;;0.70;0.40;;;;;;;12.43;100.00;99927.96;105340;1259;60533;-45
2023/06/11 09:01:56;;;;;;;0.80;0.40;;;;;;;12.47;100.00;99929.73;105290;1253;73835;-45
2023/06/11 09:04:23;;;;;;;3.80;0.30;;;;;;;12.48;100.00;99919.42;108994;1253;67697;-43
2023/06/11 09:06:51;;;;;;;2.70;0.40;;;;;;;12.50;100.00;99922.52;108953;1256;70117;-44
2023/06/11 09:09:19;;;;;;;3.20;0.40;;;;;;;12.58;100.00;99910.25;108819;1256;60429;-44
2023/06/11 09:11:47;;;;;;;2.00;0.40;;;;;;;12.68;100.00;99907.55;108854;1253;60156;-44
2023/06/11 09:14:14;;;;;;;0.80;0.40;;;;;;;12.82;100.00;99916.66;108868;1253;72622;-44
2023/06/11 09:16:43;;;;;;;1.50;0.40;;;;;;;12.91;100.00;99921.23;108897;1255;67574;-44
2023/06/11 09:19:11;;;;;;;0.70;0.40;;;;;;;12.97;100.00;99929.54;107973;1254;72663;-44
2023/06/11 09:21:47;;;;;;;0.40;0.40;;;;;;;13.03;100.00;99933.54;105810;1259;61699;-43
2023/06/11 09:24:17;;;;;;;0.80;0.30;;;;;;;13.08;100.00;99930.18;105014;1254;60342;-44
2023/06/11 09:26:57;;;;;;;0.80;0.50;;;;;;;13.14;100.00;99929.71;105673;1253;73801;-44
2023/06/11 09:29:26;;;;;;;1.20;0.40;;;;;;;13.16;100.00;99935.89;105431;1253;67901;-43
2023/06/11 09:32:09;;;;;;;0.60;0.40;;;;;;;13.18;100.00;99941.55;105428;1254;72664;-44
2023/06/11 09:34:56;;;;;;;0.80;0.40;;;;;;;13.12;100.00;99940.96;105589;1257;60575;-46
2023/06/11 09:37:23;;;;;;;0.50;0.40;;;;;;;13.06;100.00;99938.39;105416;1259;60745;-44
2023/06/11 09:39:51;;;;;;;0.50;0.30;;;;;;;13.05;100.00;99939.19;105307;1259;74061;-45
2023/06/11 09:42:24;;;;;;;2.90;0.40;;;;;;;13.06;100.00;99940.05;105332;1256;67558;-45
2023/06/11 09:44:51;;;;;;;1.30;0.40;;;;;;;13.08;100.00;99935.09;107656;1256;72692;-44
2023/06/11 09:47:19;;;;;;;0.60;0.40;;;;;;;13.10;100.00;99938.77;104763;1254;61753;-44
2023/06/11 09:49:46;;;;;;;1.40;0.40;;;;;;;13.13;100.00;99938.73;104837;1254;60809;-44
2023/06/11 09:52:14;;;;;;;1.80;0.40;;;;;;;13.19;100.00;99936.47;105082;1254;72757;-44
2023/06/11 09:54:41;;;;;;;1.90;0.30;;;;;;;13.21;100.00;99942.30;105125;1255;66828;-45
2023/06/11 09:57:08;;;;;;;0.50;0.50;;;;;;;13.16;100.00;99941.48;105248;1256;71408;-45
2023/06/11 09:59:36;;;;;;;0.60;0.60;;;;;;;13.09;100.00;99939.14;104969;1260;251590;-45
2023/06/11 10:03:20;;;;;;;0.40;0.30;;;;;;;13.01;100.00;99936.52;102069;1292;601529;-43
2023/06/11 10:05:48;;;;;;;1.00;0.40;;;;;;;12.92;100.00;99938.13;104113;1267;60184;-43
2023/06/11 10:08:17;;;;;;;1.20;0.40;;;;;;;12.88;100.00;99944.63;104435;1272;59335;-44
2023/06/11 10:10:45;;;;;;;0.50;0.30;;;;;;;12.85;100.00;99951.06;104549;1269;72362;-44
2023/06/11 10:13:31;;;;;;;0.40;0.30;;;;;;;12.84;100.00;99961.25;105056;1257;67747;-44
2023/06/11 10:16:02;;;;;;;0.90;0.40;;;;;;;12.80;100.00;99964.00;104966;1256;122573;-43
2023/06/11 10:18:30;;;;;;;0.70;0.40;;;;;;;12.80;100.00;99974.42;108822;1256;60784;-45
2023/06/11 10:21:02;;;;;;;0.40;0.30;;;;;;;12.77;100.00;99974.19;105878;1260;59331;-44
2023/06/11 10:23:40;;;;;;;0.60;0.40;;;;;;;12.74;100.00;99976.77;105234;1260;72287;-43
2023/06/11 10:26:09;;;;;;;1.00;0.60;;;;;;;12.74;100.00;99983.57;105575;1256;65693;-45
2023/06/11 10:28:51;;;;;;;2.20;0.40;;;;;;;12.74;100.00;99982.34;105947;1256;74742;-44
2023/06/11 10:31:28;;;;;;;0.70;0.40;;;;;;;12.74;100.00;99990.98;105278;1256;60742;-45
2023/06/11 10:34:02;;;;;;;1.90;0.40;;;;;;;12.65;100.00;99985.86;104826;1258;60081;-43
2023/06/11 10:36:37;;;;;;;0.30;0.30;;;;;;;12.61;100.00;99986.23;104888;1256;71837;-44
2023/06/11 10:39:06;;;;;;;0.30;0.30;;;;;;;12.60;100.00;99987.52;104680;1257;68085;-44
2023/06/11 10:41:36;;;;;;;0.40;0.30;;;;;;;12.58;100.00;99990.92;105246;1260;73191;-44
2023/06/11 10:44:04;;;;;;;0.50;0.40;;;;;;;12.53;100.00;99988.48;105156;1257;59929;-43
2023/06/11 10:46:31;;;;;;;2.50;0.40;;;;;;;12.47;100.00;99987.69;104966;1263;59456;-45
2023/06/11 10:49:00;;;;;;;1.30;0.30;;;;;;;12.42;100.00;99991.21;105169;1260;72966;-44
2023/06/11 10:51:36;;;;;;;1.20;0.30;;;;;;;12.38;100.00;99989.80;105090;1261;66312;-44
2023/06/11 10:54:07;;;;;;;1.90;0.30;;;;;;;12.35;100.00;99986.19;105043;1257;72430;-43
2023/06/11 10:56:40;;;;;;;0.70;0.50;;;;;;;12.34;100.00;99988.91;105146;1260;63675;-43
2023/06/11 10:59:09;;;;;;;2.90;0.30;;;;;;;12.34;100.00;99990.04;105412;1261;59724;-43
2023/06/11 11:01:37;;;;;;;2.00;0.50;;;;;;;12.29;100.00;99991.52;105256;1257;71950;-44
2023/06/11 11:04:04;;;;;;;0.80;0.60;;;;;;;12.28;100.00;99992.65;105210;1260;67894;-44
2023/06/11 11:06:33;;;;;;;0.80;0.30;;;;;;;12.29;100.00;99989.74;105250;1261;71945;-45
2023/06/11 11:09:02;;;;;;;0.60;0.30;;;;;;;12.28;100.00;99989.23;105323;1256;61648;-44
2023/06/11 11:11:29;;;;;;;1.50;0.30;;;;;;;12.29;100.00;99996.21;105271;1256;59547;-44
2023/06/11 11:14:00;;;;;;;0.60;0.40;;;;;;;12.30;100.00;99999.04;105076;1263;73466;-44
2023/06/11 11:16:28;;;;;;;1.10;0.40;;;;;;;12.27;100.00;99997.05;105159;1256;67620;-43
2023/06/11 11:18:55;;;;;;;2.10;0.30;;;;;;;12.24;100.00;99997.93;105258;1254;73566;-44
2023/06/11 11:21:29;;;;;;;0.40;0.40;;;;;;;12.21;100.00;99979.18;105229;1256;61744;-43
2023/06/11 11:23:57;;;;;;;2.20;0.40;;;;;;;12.17;100.00;99956.35;105398;1258;59595;-45
2023/06/11 11:26:25;;;;;;;1.00;0.30;;;;;;;12.12;100.00;99956.77;105404;1258;74002;-42